Lisa — PCTI — position and weather

sailwx.info

Track history (hours):
 
Tides and Currents Weather Stations Pressure Air Temp Water Temp Dewpoint Dewpoint Depression Visibility Wind Speed Wind Dir Waves Ship Positions

Lisa

Last reported at 2017-Sep-26 22:00 UTC. Time now 2017-Sep-26 22:02 UTC.
Position N 51°25' E 001°54'.

Length 108 m; draft 6.1 m.

Type: Cargo ship. MMSI: 246922000.

Date/timePositionNaut miles runAvg speedWind from/ knotsBaromVisibWave heightAir tempDewpointWater temp
2017-Sep-26 22:00N 51°25' E 001°54'510.3
2017-Sep-26 21:31N 51°29' E 001°60'5 9.9
2017-Sep-26 21:00N 51°33' E 002°05'5 9.7
2017-Sep-26 20:29N 51°37' E 002°11'35 8.5
2017-Sep-26 16:22N 51°59' E 002°55'3 8.8
2017-Sep-26 16:00N 51°60' E 003°00'4 9.1
2017-Sep-26 15:30N 52°01' E 003°07'5 9.4
2017-Sep-26 15:00N 52°02' E 003°14'5 9.8
2017-Sep-26 14:29N 52°02' E 003°23'510.2
2017-Sep-26 13:57N 52°03' E 003°31'710.4
2017-Sep-26 13:14N 52°03' E 003°44'310.8
2017-Sep-26 13:00N 52°02' E 003°48'4 8.7
2017-Sep-26 12:31N 52°02' E 003°55'510.7
2017-Sep-26 12:00N 51°60' E 004°02'611.7
2017-Sep-26 11:30N 51°57' E 004°11'611.3
2017-Sep-26 11:01N 51°54' E 004°18'1 2.1
2017-Sep-26 10:30N 51°53' E 004°17'0 0.0
2017-Sep-26 09:59N 51°53' E 004°17'0 0.0
2017-Sep-26 09:29N 51°53' E 004°17'0 0.0
2017-Sep-26 08:59N 51°53' E 004°17'0 0.0
2017-Sep-26 08:29N 51°53' E 004°17'0 0.0
2017-Sep-26 07:56N 51°53' E 004°17'0 0.0
2017-Sep-26 07:29N 51°53' E 004°17'0 0.0
2017-Sep-26 06:59N 51°53' E 004°17'0 0.0
2017-Sep-26 06:26N 51°53' E 004°17'0 0.0
2017-Sep-26 05:59N 51°53' E 004°17'0 0.0
2017-Sep-26 05:29N 51°53' E 004°17'0 0.0
2017-Sep-26 04:56N 51°53' E 004°17'0 0.0
2017-Sep-26 04:29N 51°53' E 004°17'0 0.0
2017-Sep-26 03:59N 51°53' E 004°17'0 0.0
2017-Sep-26 03:29N 51°53' E 004°17'0 0.0
2017-Sep-26 02:59N 51°53' E 004°17'0 0.0
2017-Sep-26 02:29N 51°53' E 004°17'0 0.0
2017-Sep-26 01:56N 51°53' E 004°17'0 0.0
2017-Sep-26 01:29N 51°53' E 004°17'0 0.0
2017-Sep-26 00:53N 51°53' E 004°17'0 0.0
2017-Sep-26 00:25N 51°53' E 004°17'0 0.0
2017-Sep-25 23:55N 51°53' E 004°17'0 0.0
2017-Sep-25 23:28N 51°53' E 004°17'0 0.0
2017-Sep-25 22:58N 51°53' E 004°17'0 0.0
2017-Sep-25 22:28N 51°53' E 004°17'0 0.0
2017-Sep-25 21:58N 51°53' E 004°17'0 0.0
2017-Sep-25 21:28N 51°53' E 004°17'0 0.0
2017-Sep-25 20:58N 51°53' E 004°17'0 0.0
2017-Sep-25 20:28N 51°53' E 004°17'0 0.0
2017-Sep-25 19:58N 51°53' E 004°17'0 0.0
2017-Sep-25 19:28N 51°53' E 004°17'0 0.0
2017-Sep-25 18:58N 51°53' E 004°17'0 0.0
2017-Sep-25 18:28N 51°53' E 004°17'0 0.0
2017-Sep-25 17:58N 51°53' E 004°17'0 0.0
2017-Sep-25 17:28N 51°53' E 004°17'0 0.0
2017-Sep-25 16:58N 51°53' E 004°17'0 0.0
2017-Sep-25 16:28N 51°53' E 004°17'0 0.0
2017-Sep-25 15:55N 51°53' E 004°17'0 0.0
2017-Sep-25 15:28N 51°53' E 004°17'0 0.0
2017-Sep-25 14:58N 51°53' E 004°17'0 0.0
2017-Sep-25 14:28N 51°53' E 004°17'0 0.0
2017-Sep-25 13:46N 51°53' E 004°17'0 0.0
2017-Sep-25 13:28N 51°53' E 004°17'0 0.0
2017-Sep-25 12:58N 51°53' E 004°17'0 0.0
2017-Sep-25 12:28N 51°53' E 004°17'0 0.0
2017-Sep-25 11:58N 51°53' E 004°17'0 0.0
2017-Sep-25 11:28N 51°53' E 004°17'0 0.0
2017-Sep-25 10:58N 51°53' E 004°17'0 0.0
2017-Sep-25 10:19N 51°53' E 004°17'0 0.0
2017-Sep-25 09:58N 51°53' E 004°17'0 0.0
2017-Sep-25 09:28N 51°53' E 004°17'0 0.0
2017-Sep-25 08:52N 51°53' E 004°17'0 0.0
2017-Sep-25 08:28N 51°53' E 004°17'0 0.0
2017-Sep-25 07:52N 51°53' E 004°17'0 0.0
2017-Sep-25 07:28N 51°53' E 004°17'0 0.0
2017-Sep-25 06:52N 51°53' E 004°17'0 0.0
2017-Sep-25 06:25N 51°53' E 004°17'0 0.0
2017-Sep-25 05:58N 51°53' E 004°17'0 0.0
2017-Sep-25 05:25N 51°53' E 004°17'0 0.0
2017-Sep-25 04:55N 51°53' E 004°17'0 0.0
2017-Sep-25 04:28N 51°53' E 004°17'0 0.0
2017-Sep-25 03:58N 51°53' E 004°17'0 0.0
2017-Sep-25 03:28N 51°53' E 004°17'0 0.0
2017-Sep-25 02:58N 51°53' E 004°17'0 0.0
2017-Sep-25 02:25N 51°53' E 004°17'0 0.0
2017-Sep-25 01:58N 51°53' E 004°17'0 0.0
2017-Sep-25 01:25N 51°53' E 004°17'0 0.0
2017-Sep-25 00:55N 51°53' E 004°17'0 0.0
2017-Sep-25 00:28N 51°53' E 004°17'0 0.0
2017-Sep-24 23:58N 51°53' E 004°17'0 0.0
2017-Sep-24 23:25N 51°53' E 004°17'0 0.0
2017-Sep-24 22:58N 51°53' E 004°17'0 0.0
2017-Sep-24 22:28N 51°53' E 004°17'0 0.0
2017-Sep-24 21:58N 51°53' E 004°17'0 0.0
2017-Sep-24 21:31N 51°53' E 004°17'0 0.0
2017-Sep-24 21:01N 51°53' E 004°17'0 0.0
2017-Sep-24 20:31N 51°53' E 004°17'0 0.0
2017-Sep-24 19:57N 51°53' E 004°17'0 0.0
2017-Sep-24 19:27N 51°53' E 004°17'0 0.0
2017-Sep-24 19:00N 51°53' E 004°17'0 0.0
2017-Sep-24 18:30N 51°53' E 004°17'0 0.0
2017-Sep-24 18:00N 51°53' E 004°17'0 0.0
2017-Sep-24 17:30N 51°53' E 004°17'0 0.0
2017-Sep-24 17:00N 51°53' E 004°17'0 0.0
2017-Sep-24 16:30N 51°53' E 004°17'0 0.0
2017-Sep-24 16:00N 51°53' E 004°17'0 0.0
2017-Sep-24 15:30N 51°53' E 004°17'0 0.0
2017-Sep-24 15:00N 51°53' E 004°17'0 0.0
2017-Sep-24 14:30N 51°53' E 004°17'0 0.0
2017-Sep-24 13:57N 51°53' E 004°17'0 0.0
2017-Sep-24 13:30N 51°53' E 004°17'0 0.0
2017-Sep-24 13:00N 51°53' E 004°17'0 0.0
2017-Sep-24 12:30N 51°53' E 004°17'0 0.0
2017-Sep-24 12:00N 51°53' E 004°17'0 0.0
2017-Sep-24 11:30N 51°53' E 004°17'0 0.0
2017-Sep-24 11:00N 51°53' E 004°17'0 0.0
2017-Sep-24 10:30N 51°53' E 004°17'0 0.0
2017-Sep-24 10:00N 51°53' E 004°17'0 0.0
2017-Sep-24 09:30N 51°53' E 004°17'0 0.0
2017-Sep-24 09:00N 51°53' E 004°17'1 1.7
2017-Sep-24 08:30N 51°53' E 004°18'2 4.0
2017-Sep-24 08:00N 51°54' E 004°15'4 7.8
2017-Sep-24 07:30N 51°57' E 004°11'4 8.7
2017-Sep-24 07:00N 51°59' E 004°04'5 9.0
2017-Sep-24 06:30N 52°00' E 003°57'5 9.3
2017-Sep-24 06:00N 52°00' E 003°50'3 6.6
2017-Sep-24 05:30N 51°58' E 003°45'2 4.4
2017-Sep-24 05:01N 51°57' E 003°43'0 0.1
2017-Sep-24 03:55N 51°57' E 003°43'0 0.0
2017-Sep-24 03:10N 51°57' E 003°43'0 0.1
2017-Sep-24 02:58N 51°57' E 003°43'0 0.1
2017-Sep-24 02:22N 51°57' E 003°43'0 0.1
2017-Sep-24 01:55N 51°57' E 003°43'0 0.1
2017-Sep-24 01:22N 51°57' E 003°43'0 0.1
2017-Sep-24 00:40N 51°57' E 003°43'0 0.0
2017-Sep-24 00:28N 51°57' E 003°43'0 0.0
2017-Sep-24 00:00N 51°57' E 003°43'0 0.0
2017-Sep-23 23:28N 51°57' E 003°43'0 0.0
2017-Sep-23 22:57N 51°57' E 003°43'0 0.0
2017-Sep-23 22:15N 51°57' E 003°43'0 0.0
2017-Sep-23 22:00N 51°57' E 003°43'0 0.0
2017-Sep-23 21:21N 51°57' E 003°43'0 0.1
2017-Sep-23 20:48N 51°57' E 003°43'0 0.1
2017-Sep-23 20:21N 51°57' E 003°43'0 0.1
2017-Sep-23 19:42N 51°57' E 003°43'0 0.0
2017-Sep-22 01:07N 51°57' E 003°43'0 0.1
2017-Sep-22 00:10N 51°57' E 003°43'0 0.2
2017-Sep-21 23:58N 51°57' E 003°43'0 0.0
2017-Sep-21 23:25N 51°57' E 003°43'0 0.0
2017-Sep-21 22:49N 51°57' E 003°43'0 0.0
2017-Sep-21 22:28N 51°57' E 003°43'0 0.0
2017-Sep-21 21:55N 51°57' E 003°43'0 0.0
2017-Sep-21 21:28N 51°57' E 003°43'0 0.0
2017-Sep-21 20:49N 51°57' E 003°43'0 0.0
2017-Sep-21 20:22N 51°57' E 003°43'0 0.1
2017-Sep-21 19:58N 51°57' E 003°43'0 0.2
2017-Sep-21 19:25N 51°57' E 003°43'0 0.0
2017-Sep-21 18:10N 51°57' E 003°43'0 0.0
2017-Sep-21 17:46N 51°57' E 003°43'0 0.0
2017-Sep-21 11:58N 51°57' E 003°43'0 0.2
2017-Sep-21 11:22N 51°57' E 003°43'0 0.1
2017-Sep-21 10:34N 51°57' E 003°43'0 0.0
2017-Sep-21 10:22N 51°57' E 003°43'0 0.1
2017-Sep-21 10:01N 51°57' E 003°43'2 4.7
2017-Sep-21 09:30N 51°57' E 003°39'4 8.4
2017-Sep-21 08:58N 51°56' E 003°32'4 9.2
2017-Sep-21 08:30N 51°55' E 003°25'12 9.5
2017-Sep-21 07:15N 51°52' E 003°06'3410.5
2017-Sep-21 04:02N 51°33' E 002°21'112.4
2017-Sep-21 04:00N 51°33' E 002°21'612.0
2017-Sep-21 03:30N 51°28' E 002°15'612.3
2017-Sep-21 03:00N 51°23' E 002°10'612.4
2017-Sep-21 02:30N 51°17' E 002°06'612.5
2017-Sep-21 02:00N 51°12' E 001°59'713.3
2017-Sep-21 01:30N 51°09' E 001°50'713.8
2017-Sep-21 01:00N 51°04' E 001°43'714.4
2017-Sep-21 00:30N 50°59' E 001°35'714.3
2017-Sep-21 00:00N 50°53' E 001°28'1014.0
2017-Sep-20 23:17N 50°43' E 001°23'2812.2
2017-Sep-20 20:59N 50°29' E 000°45'2012.8
2017-Sep-20 19:26N 50°23' E 000°15'512.2
2017-Sep-20 19:01N 50°22' E 000°07'611.6
2017-Sep-20 18:30N 50°20' W 000°02'811.0
2017-Sep-20 17:48N 50°18' W 000°14'310.5
2017-Sep-20 17:30N 50°17' W 000°18'38 8.4
2017-Sep-20 12:56N 50°08' W 001°16'4 8.3
2017-Sep-20 12:30N 50°07' W 001°22'5 9.1
2017-Sep-20 12:00N 50°06' W 001°29'5 9.8
2017-Sep-20 11:30N 50°04' W 001°36'510.5
2017-Sep-20 11:01N 50°03' W 001°44'611.4
2017-Sep-20 10:31N 50°02' W 001°52'612.3
2017-Sep-20 09:59N 49°60' W 002°02'612.9
2017-Sep-20 09:30N 49°58' W 002°11'713.3
2017-Sep-20 09:00N 49°57' W 002°21'713.4
2017-Sep-20 08:30N 49°55' W 002°31'713.2
2017-Sep-20 08:01N 49°53' W 002°41'713.1
2017-Sep-20 07:30N 49°52' W 002°51'612.9
2017-Sep-20 07:00N 49°51' W 003°01'612.6
2017-Sep-20 06:31N 49°51' W 003°11'612.6
2017-Sep-20 06:00N 49°51' W 003°21'612.6
2017-Sep-20 05:30N 49°51' W 003°30'612.6
2017-Sep-20 05:01N 49°52' W 003°40'612.4
2017-Sep-20 04:31N 49°52' W 003°50'612.0
2017-Sep-20 04:00N 49°53' W 003°59'611.6
2017-Sep-20 03:31N 49°53' W 004°08'611.2
2017-Sep-20 03:01N 49°53' W 004°17'510.9
2017-Sep-20 02:30N 49°53' W 004°25'610.6
2017-Sep-20 01:56N 49°54' W 004°35'510.3
2017-Sep-20 01:27N 49°54' W 004°42'510.2
2017-Sep-20 00:59N 49°54' W 004°49'510.0
2017-Sep-20 00:31N 49°54' W 004°57'5 9.5
2017-Sep-20 00:00N 49°54' W 005°04'5 8.8
2017-Sep-19 23:28N 49°54' W 005°12'4 8.0
2017-Sep-19 23:00N 49°55' W 005°17'5 8.8
2017-Sep-19 22:29N 49°55' W 005°25'4 9.4
2017-Sep-19 22:00N 49°55' W 005°32'5 9.6
2017-Sep-19 21:30N 49°55' W 005°39'510.2
2017-Sep-19 21:00N 49°56' W 005°47'510.2
2017-Sep-19 20:29N 49°56' W 005°55'4 8.9
2017-Sep-19 20:01N 49°59' W 005°60'1011.8
2017-Sep-19 19:12N 50°08' W 005°60'211.3
2017-Sep-19 19:00N 50°11' W 005°60'611.0
2017-Sep-19 18:29N 50°16' W 005°60'610.4
2017-Sep-19 17:53N 50°23' W 005°60'4 9.7
2017-Sep-19 17:31N 50°26' W 005°60'8 9.4
2017-Sep-19 16:41N 50°34' W 005°59'3 9.2
2017-Sep-19 16:22N 50°37' W 005°59'13 9.2
2017-Sep-19 14:56N 50°50' W 005°58'8 9.5
2017-Sep-19 14:03N 50°58' W 005°58'110.0
2017-Sep-19 13:59N 50°59' W 005°58'610.1
2017-Sep-19 13:21N 51°06' W 005°57'5310.0
2017-Sep-19 08:01N 51°59' W 005°53'2 7.8
2017-Sep-19 07:43N 52°01' W 005°52'2 7.6
2017-Sep-19 07:30N 52°03' W 005°52'4 7.9
2017-Sep-19 06:59N 52°07' W 005°51'4 7.9
2017-Sep-19 06:29N 52°11' W 005°50'6 8.3
2017-Sep-19 05:43N 52°17' W 005°49'2 8.8
2017-Sep-19 05:30N 52°19' W 005°48'5 9.3
2017-Sep-19 05:00N 52°23' W 005°47'5 9.9
2017-Sep-19 04:30N 52°28' W 005°47'510.6
2017-Sep-19 04:00N 52°34' W 005°46'611.4
2017-Sep-19 03:30N 52°39' W 005°44'8211.8
2017-Sep-18 20:35N 54°00' W 005°25'110.6
2017-Sep-18 20:30N 54°01' W 005°24'510.8
2017-Sep-18 20:01N 54°06' W 005°23'511.0
2017-Sep-18 19:31N 54°12' W 005°21'611.3
2017-Sep-18 19:00N 54°17' W 005°20'611.7
2017-Sep-18 18:30N 54°23' W 005°20'612.4
2017-Sep-18 18:00N 54°30' W 005°21'612.6
2017-Sep-18 17:30N 54°36' W 005°23'713.1
2017-Sep-18 17:00N 54°42' W 005°28'5 9.4
2017-Sep-18 16:30N 54°42' W 005°36'1 1.0
2017-Sep-18 15:58N 54°42' W 005°37'0 0.0
2017-Sep-18 15:28N 54°42' W 005°37'0 0.0
2017-Sep-18 14:58N 54°42' W 005°37'0 0.0
2017-Sep-18 14:28N 54°42' W 005°37'0 0.0
2017-Sep-18 13:58N 54°42' W 005°37'0 0.1
2017-Sep-18 13:28N 54°42' W 005°37'0 0.1
2017-Sep-18 12:55N 54°42' W 005°37'0 0.1
2017-Sep-18 12:25N 54°42' W 005°37'0 0.1
2017-Sep-18 11:58N 54°42' W 005°37'0 0.0
2017-Sep-18 11:28N 54°42' W 005°37'0 0.0
2017-Sep-18 10:58N 54°42' W 005°37'0 0.0
2017-Sep-18 10:28N 54°42' W 005°37'0 0.2
2017-Sep-18 09:58N 54°42' W 005°37'0 0.1
2017-Sep-18 09:28N 54°42' W 005°37'0 0.0
2017-Sep-18 08:58N 54°42' W 005°37'0 0.0
2017-Sep-18 08:28N 54°42' W 005°37'0 0.0
2017-Sep-18 07:58N 54°42' W 005°37'0 0.0
2017-Sep-18 07:28N 54°42' W 005°37'0 0.0
2017-Sep-18 06:58N 54°42' W 005°37'0 0.0
2017-Sep-18 06:28N 54°42' W 005°37'0 0.0
2017-Sep-18 05:58N 54°42' W 005°37'0 0.0
2017-Sep-18 05:28N 54°42' W 005°37'0 0.0
2017-Sep-18 04:58N 54°42' W 005°37'0 0.0
2017-Sep-18 04:28N 54°42' W 005°37'0 0.0
2017-Sep-18 03:58N 54°42' W 005°37'0 0.0
2017-Sep-18 03:25N 54°42' W 005°37'0 0.0
2017-Sep-18 02:58N 54°42' W 005°37'0 0.0
2017-Sep-18 02:28N 54°42' W 005°37'0 0.1
2017-Sep-18 01:58N 54°42' W 005°37'0 0.1
2017-Sep-18 01:28N 54°42' W 005°37'0 0.0
2017-Sep-18 00:58N 54°42' W 005°37'0 0.1
2017-Sep-18 00:28N 54°42' W 005°37'0 0.0
2017-Sep-17 23:58N 54°42' W 005°37'0 0.0
2017-Sep-17 23:28N 54°42' W 005°37'0 0.0
2017-Sep-17 22:58N 54°42' W 005°37'0 0.1
2017-Sep-17 22:28N 54°42' W 005°37'0 0.0
2017-Sep-17 21:58N 54°42' W 005°37'0 0.0
2017-Sep-17 21:28N 54°42' W 005°37'0 0.0
2017-Sep-17 20:58N 54°42' W 005°37'0 0.0
2017-Sep-17 20:28N 54°42' W 005°37'0 0.0
2017-Sep-17 19:58N 54°42' W 005°37'0 0.0
2017-Sep-17 19:25N 54°42' W 005°37'0 0.0
2017-Sep-17 18:55N 54°42' W 005°37'0 0.0
2017-Sep-17 18:25N 54°42' W 005°37'0 0.0
2017-Sep-17 18:01N 54°42' W 005°37'0 0.0
2017-Sep-17 17:31N 54°42' W 005°37'0 0.0
2017-Sep-17 17:01N 54°42' W 005°37'0 0.0
2017-Sep-17 16:30N 54°42' W 005°37'0 0.0
2017-Sep-17 16:00N 54°42' W 005°37'0 0.0
2017-Sep-17 15:30N 54°42' W 005°37'0 0.0
2017-Sep-17 15:00N 54°42' W 005°37'0 0.0
2017-Sep-17 14:30N 54°42' W 005°37'0 0.0
2017-Sep-17 13:57N 54°42' W 005°37'0 0.0
2017-Sep-17 13:30N 54°42' W 005°37'0 0.0
2017-Sep-17 13:00N 54°42' W 005°37'0 0.0
2017-Sep-17 12:30N 54°42' W 005°37'0 0.0
2017-Sep-17 12:00N 54°42' W 005°37'0 0.1
2017-Sep-17 11:30N 54°42' W 005°37'0 0.0
2017-Sep-17 11:00N 54°42' W 005°37'0 0.0
2017-Sep-17 10:30N 54°42' W 005°37'0 0.0
2017-Sep-17 10:00N 54°42' W 005°37'0 0.0
2017-Sep-17 09:30N 54°42' W 005°37'0 0.0
2017-Sep-17 09:00N 54°42' W 005°37'0 0.0
2017-Sep-17 08:30N 54°42' W 005°37'0 0.0
2017-Sep-17 07:57N 54°42' W 005°37'0 0.0
2017-Sep-17 07:30N 54°42' W 005°37'0 0.0
2017-Sep-17 07:00N 54°42' W 005°37'0 0.0
2017-Sep-17 06:30N 54°42' W 005°37'0 0.0
2017-Sep-17 06:00N 54°42' W 005°37'0 0.0
2017-Sep-17 05:30N 54°42' W 005°37'0 0.0
2017-Sep-17 04:57N 54°42' W 005°37'0 0.0
2017-Sep-17 04:30N 54°42' W 005°37'0 0.0
2017-Sep-17 03:57N 54°42' W 005°37'0 0.0
2017-Sep-17 03:27N 54°42' W 005°37'0 0.0
2017-Sep-17 02:57N 54°42' W 005°37'0 0.0
2017-Sep-17 02:30N 54°42' W 005°37'0 0.0
2017-Sep-17 02:00N 54°42' W 005°37'0 0.0
2017-Sep-17 01:30N 54°42' W 005°37'0 0.0
2017-Sep-17 01:00N 54°42' W 005°37'0 0.0
2017-Sep-17 00:30N 54°42' W 005°37'0 0.0
2017-Sep-17 00:00N 54°42' W 005°37'0 0.0
2017-Sep-16 23:27N 54°42' W 005°37'0 0.0
2017-Sep-16 23:00N 54°42' W 005°37'0 0.0
2017-Sep-16 22:30N 54°42' W 005°37'0 0.0
2017-Sep-16 21:57N 54°42' W 005°37'  
Track history (hours):
 
Tides and Currents Weather Stations Pressure Air Temp Water Temp Dewpoint Dewpoint Depression Visibility Wind Speed Wind Dir Waves Ship Positions

Lisa

Last reported at 2017-Sep-26 22:00 UTC. Time now 2017-Sep-26 22:02 UTC.
Position N 51°25' E 001°54'.

Length 108 m; draft 6.1 m.

Type: Cargo ship. MMSI: 246922000.

Date/timePositionNaut miles runAvg speedWind from/ knotsBaromVisibWave heightAir tempDewpointWater temp
2017-Sep-26 22:00N 51°25' E 001°54'510.3
2017-Sep-26 21:31N 51°29' E 001°60'5 9.9
2017-Sep-26 21:00N 51°33' E 002°05'5 9.7
2017-Sep-26 20:29N 51°37' E 002°11'35 8.5
2017-Sep-26 16:22N 51°59' E 002°55'3 8.8
2017-Sep-26 16:00N 51°60' E 003°00'4 9.1
2017-Sep-26 15:30N 52°01' E 003°07'5 9.4
2017-Sep-26 15:00N 52°02' E 003°14'5 9.8
2017-Sep-26 14:29N 52°02' E 003°23'510.2
2017-Sep-26 13:57N 52°03' E 003°31'710.4
2017-Sep-26 13:14N 52°03' E 003°44'310.8
2017-Sep-26 13:00N 52°02' E 003°48'4 8.7
2017-Sep-26 12:31N 52°02' E 003°55'510.7
2017-Sep-26 12:00N 51°60' E 004°02'611.7
2017-Sep-26 11:30N 51°57' E 004°11'611.3
2017-Sep-26 11:01N 51°54' E 004°18'1 2.1
2017-Sep-26 10:30N 51°53' E 004°17'0 0.0
2017-Sep-26 09:59N 51°53' E 004°17'0 0.0
2017-Sep-26 09:29N 51°53' E 004°17'0 0.0
2017-Sep-26 08:59N 51°53' E 004°17'0 0.0
2017-Sep-26 08:29N 51°53' E 004°17'0 0.0
2017-Sep-26 07:56N 51°53' E 004°17'0 0.0
2017-Sep-26 07:29N 51°53' E 004°17'0 0.0
2017-Sep-26 06:59N 51°53' E 004°17'0 0.0
2017-Sep-26 06:26N 51°53' E 004°17'0 0.0
2017-Sep-26 05:59N 51°53' E 004°17'0 0.0
2017-Sep-26 05:29N 51°53' E 004°17'0 0.0
2017-Sep-26 04:56N 51°53' E 004°17'0 0.0
2017-Sep-26 04:29N 51°53' E 004°17'0 0.0
2017-Sep-26 03:59N 51°53' E 004°17'0 0.0
2017-Sep-26 03:29N 51°53' E 004°17'0 0.0
2017-Sep-26 02:59N 51°53' E 004°17'0 0.0
2017-Sep-26 02:29N 51°53' E 004°17'0 0.0
2017-Sep-26 01:56N 51°53' E 004°17'0 0.0
2017-Sep-26 01:29N 51°53' E 004°17'0 0.0
2017-Sep-26 00:53N 51°53' E 004°17'0 0.0
2017-Sep-26 00:25N 51°53' E 004°17'0 0.0
2017-Sep-25 23:55N 51°53' E 004°17'0 0.0
2017-Sep-25 23:28N 51°53' E 004°17'0 0.0
2017-Sep-25 22:58N 51°53' E 004°17'0 0.0
2017-Sep-25 22:28N 51°53' E 004°17'0 0.0
2017-Sep-25 21:58N 51°53' E 004°17'0 0.0
2017-Sep-25 21:28N 51°53' E 004°17'0 0.0
2017-Sep-25 20:58N 51°53' E 004°17'0 0.0
2017-Sep-25 20:28N 51°53' E 004°17'0 0.0
2017-Sep-25 19:58N 51°53' E 004°17'0 0.0
2017-Sep-25 19:28N 51°53' E 004°17'0 0.0
2017-Sep-25 18:58N 51°53' E 004°17'0 0.0
2017-Sep-25 18:28N 51°53' E 004°17'0 0.0
2017-Sep-25 17:58N 51°53' E 004°17'0 0.0
2017-Sep-25 17:28N 51°53' E 004°17'0 0.0
2017-Sep-25 16:58N 51°53' E 004°17'0 0.0
2017-Sep-25 16:28N 51°53' E 004°17'0 0.0
2017-Sep-25 15:55N 51°53' E 004°17'0 0.0
2017-Sep-25 15:28N 51°53' E 004°17'0 0.0
2017-Sep-25 14:58N 51°53' E 004°17'0 0.0
2017-Sep-25 14:28N 51°53' E 004°17'0 0.0
2017-Sep-25 13:46N 51°53' E 004°17'0 0.0
2017-Sep-25 13:28N 51°53' E 004°17'0 0.0
2017-Sep-25 12:58N 51°53' E 004°17'0 0.0
2017-Sep-25 12:28N 51°53' E 004°17'0 0.0
2017-Sep-25 11:58N 51°53' E 004°17'0 0.0
2017-Sep-25 11:28N 51°53' E 004°17'0 0.0
2017-Sep-25 10:58N 51°53' E 004°17'0 0.0
2017-Sep-25 10:19N 51°53' E 004°17'0 0.0
2017-Sep-25 09:58N 51°53' E 004°17'0 0.0
2017-Sep-25 09:28N 51°53' E 004°17'0 0.0
2017-Sep-25 08:52N 51°53' E 004°17'0 0.0
2017-Sep-25 08:28N 51°53' E 004°17'0 0.0
2017-Sep-25 07:52N 51°53' E 004°17'0 0.0
2017-Sep-25 07:28N 51°53' E 004°17'0 0.0
2017-Sep-25 06:52N 51°53' E 004°17'0 0.0
2017-Sep-25 06:25N 51°53' E 004°17'0 0.0
2017-Sep-25 05:58N 51°53' E 004°17'0 0.0
2017-Sep-25 05:25N 51°53' E 004°17'0 0.0
2017-Sep-25 04:55N 51°53' E 004°17'0 0.0
2017-Sep-25 04:28N 51°53' E 004°17'0 0.0
2017-Sep-25 03:58N 51°53' E 004°17'0 0.0
2017-Sep-25 03:28N 51°53' E 004°17'0 0.0
2017-Sep-25 02:58N 51°53' E 004°17'0 0.0
2017-Sep-25 02:25N 51°53' E 004°17'0 0.0
2017-Sep-25 01:58N 51°53' E 004°17'0 0.0
2017-Sep-25 01:25N 51°53' E 004°17'0 0.0
2017-Sep-25 00:55N 51°53' E 004°17'0 0.0
2017-Sep-25 00:28N 51°53' E 004°17'0 0.0
2017-Sep-24 23:58N 51°53' E 004°17'0 0.0
2017-Sep-24 23:25N 51°53' E 004°17'0 0.0
2017-Sep-24 22:58N 51°53' E 004°17'0 0.0
2017-Sep-24 22:28N 51°53' E 004°17'0 0.0
2017-Sep-24 21:58N 51°53' E 004°17'0 0.0
2017-Sep-24 21:31N 51°53' E 004°17'0 0.0
2017-Sep-24 21:01N 51°53' E 004°17'0 0.0
2017-Sep-24 20:31N 51°53' E 004°17'0 0.0
2017-Sep-24 19:57N 51°53' E 004°17'0 0.0
2017-Sep-24 19:27N 51°53' E 004°17'0 0.0
2017-Sep-24 19:00N 51°53' E 004°17'0 0.0
2017-Sep-24 18:30N 51°53' E 004°17'0 0.0
2017-Sep-24 18:00N 51°53' E 004°17'0 0.0
2017-Sep-24 17:30N 51°53' E 004°17'0 0.0
2017-Sep-24 17:00N 51°53' E 004°17'0 0.0
2017-Sep-24 16:30N 51°53' E 004°17'0 0.0
2017-Sep-24 16:00N 51°53' E 004°17'0 0.0
2017-Sep-24 15:30N 51°53' E 004°17'0 0.0
2017-Sep-24 15:00N 51°53' E 004°17'0 0.0
2017-Sep-24 14:30N 51°53' E 004°17'0 0.0
2017-Sep-24 13:57N 51°53' E 004°17'0 0.0
2017-Sep-24 13:30N 51°53' E 004°17'0 0.0
2017-Sep-24 13:00N 51°53' E 004°17'0 0.0
2017-Sep-24 12:30N 51°53' E 004°17'0 0.0
2017-Sep-24 12:00N 51°53' E 004°17'0 0.0
2017-Sep-24 11:30N 51°53' E 004°17'0 0.0
2017-Sep-24 11:00N 51°53' E 004°17'0 0.0
2017-Sep-24 10:30N 51°53' E 004°17'0 0.0
2017-Sep-24 10:00N 51°53' E 004°17'0 0.0
2017-Sep-24 09:30N 51°53' E 004°17'0 0.0
2017-Sep-24 09:00N 51°53' E 004°17'1 1.7
2017-Sep-24 08:30N 51°53' E 004°18'2 4.0
2017-Sep-24 08:00N 51°54' E 004°15'4 7.8
2017-Sep-24 07:30N 51°57' E 004°11'4 8.7
2017-Sep-24 07:00N 51°59' E 004°04'5 9.0
2017-Sep-24 06:30N 52°00' E 003°57'5 9.3
2017-Sep-24 06:00N 52°00' E 003°50'3 6.6
2017-Sep-24 05:30N 51°58' E 003°45'2 4.4
2017-Sep-24 05:01N 51°57' E 003°43'0 0.1
2017-Sep-24 03:55N 51°57' E 003°43'0 0.0
2017-Sep-24 03:10N 51°57' E 003°43'0 0.1
2017-Sep-24 02:58N 51°57' E 003°43'0 0.1
2017-Sep-24 02:22N 51°57' E 003°43'0 0.1
2017-Sep-24 01:55N 51°57' E 003°43'0 0.1
2017-Sep-24 01:22N 51°57' E 003°43'0 0.1
2017-Sep-24 00:40N 51°57' E 003°43'0 0.0
2017-Sep-24 00:28N 51°57' E 003°43'0 0.0
2017-Sep-24 00:00N 51°57' E 003°43'0 0.0
2017-Sep-23 23:28N 51°57' E 003°43'0 0.0
2017-Sep-23 22:57N 51°57' E 003°43'0 0.0
2017-Sep-23 22:15N 51°57' E 003°43'0 0.0
2017-Sep-23 22:00N 51°57' E 003°43'0 0.0
2017-Sep-23 21:21N 51°57' E 003°43'0 0.1
2017-Sep-23 20:48N 51°57' E 003°43'0 0.1
2017-Sep-23 20:21N 51°57' E 003°43'0 0.1
2017-Sep-23 19:42N 51°57' E 003°43'0 0.0
2017-Sep-22 01:07N 51°57' E 003°43'0 0.1
2017-Sep-22 00:10N 51°57' E 003°43'0 0.2
2017-Sep-21 23:58N 51°57' E 003°43'0 0.0
2017-Sep-21 23:25N 51°57' E 003°43'0 0.0
2017-Sep-21 22:49N 51°57' E 003°43'0 0.0
2017-Sep-21 22:28N 51°57' E 003°43'0 0.0
2017-Sep-21 21:55N 51°57' E 003°43'0 0.0
2017-Sep-21 21:28N 51°57' E 003°43'0 0.0
2017-Sep-21 20:49N 51°57' E 003°43'0 0.0
2017-Sep-21 20:22N 51°57' E 003°43'0 0.1
2017-Sep-21 19:58N 51°57' E 003°43'0 0.2
2017-Sep-21 19:25N 51°57' E 003°43'0 0.0
2017-Sep-21 18:10N 51°57' E 003°43'0 0.0
2017-Sep-21 17:46N 51°57' E 003°43'0 0.0
2017-Sep-21 11:58N 51°57' E 003°43'0 0.2
2017-Sep-21 11:22N 51°57' E 003°43'0 0.1
2017-Sep-21 10:34N 51°57' E 003°43'0 0.0
2017-Sep-21 10:22N 51°57' E 003°43'0 0.1
2017-Sep-21 10:01N 51°57' E 003°43'2 4.7
2017-Sep-21 09:30N 51°57' E 003°39'4 8.4
2017-Sep-21 08:58N 51°56' E 003°32'4 9.2
2017-Sep-21 08:30N 51°55' E 003°25'12 9.5
2017-Sep-21 07:15N 51°52' E 003°06'3410.5
2017-Sep-21 04:02N 51°33' E 002°21'112.4
2017-Sep-21 04:00N 51°33' E 002°21'612.0
2017-Sep-21 03:30N 51°28' E 002°15'612.3
2017-Sep-21 03:00N 51°23' E 002°10'612.4
2017-Sep-21 02:30N 51°17' E 002°06'612.5
2017-Sep-21 02:00N 51°12' E 001°59'713.3
2017-Sep-21 01:30N 51°09' E 001°50'713.8
2017-Sep-21 01:00N 51°04' E 001°43'714.4
2017-Sep-21 00:30N 50°59' E 001°35'714.3
2017-Sep-21 00:00N 50°53' E 001°28'1014.0
2017-Sep-20 23:17N 50°43' E 001°23'2812.2
2017-Sep-20 20:59N 50°29' E 000°45'2012.8
2017-Sep-20 19:26N 50°23' E 000°15'512.2
2017-Sep-20 19:01N 50°22' E 000°07'611.6
2017-Sep-20 18:30N 50°20' W 000°02'811.0
2017-Sep-20 17:48N 50°18' W 000°14'310.5
2017-Sep-20 17:30N 50°17' W 000°18'38 8.4
2017-Sep-20 12:56N 50°08' W 001°16'4 8.3
2017-Sep-20 12:30N 50°07' W 001°22'5 9.1
2017-Sep-20 12:00N 50°06' W 001°29'5 9.8
2017-Sep-20 11:30N 50°04' W 001°36'510.5
2017-Sep-20 11:01N 50°03' W 001°44'611.4
2017-Sep-20 10:31N 50°02' W 001°52'612.3
2017-Sep-20 09:59N 49°60' W 002°02'612.9
2017-Sep-20 09:30N 49°58' W 002°11'713.3
2017-Sep-20 09:00N 49°57' W 002°21'713.4
2017-Sep-20 08:30N 49°55' W 002°31'713.2
2017-Sep-20 08:01N 49°53' W 002°41'713.1
2017-Sep-20 07:30N 49°52' W 002°51'612.9
2017-Sep-20 07:00N 49°51' W 003°01'612.6
2017-Sep-20 06:31N 49°51' W 003°11'612.6
2017-Sep-20 06:00N 49°51' W 003°21'612.6
2017-Sep-20 05:30N 49°51' W 003°30'612.6
2017-Sep-20 05:01N 49°52' W 003°40'612.4
2017-Sep-20 04:31N 49°52' W 003°50'612.0
2017-Sep-20 04:00N 49°53' W 003°59'611.6
2017-Sep-20 03:31N 49°53' W 004°08'611.2
2017-Sep-20 03:01N 49°53' W 004°17'510.9
2017-Sep-20 02:30N 49°53' W 004°25'610.6
2017-Sep-20 01:56N 49°54' W 004°35'510.3
2017-Sep-20 01:27N 49°54' W 004°42'510.2
2017-Sep-20 00:59N 49°54' W 004°49'510.0
2017-Sep-20 00:31N 49°54' W 004°57'5 9.5
2017-Sep-20 00:00N 49°54' W 005°04'5 8.8
2017-Sep-19 23:28N 49°54' W 005°12'4 8.0
2017-Sep-19 23:00N 49°55' W 005°17'5 8.8
2017-Sep-19 22:29N 49°55' W 005°25'4 9.4
2017-Sep-19 22:00N 49°55' W 005°32'5 9.6
2017-Sep-19 21:30N 49°55' W 005°39'510.2
2017-Sep-19 21:00N 49°56' W 005°47'510.2
2017-Sep-19 20:29N 49°56' W 005°55'4 8.9
2017-Sep-19 20:01N 49°59' W 005°60'1011.8
2017-Sep-19 19:12N 50°08' W 005°60'211.3
2017-Sep-19 19:00N 50°11' W 005°60'611.0
2017-Sep-19 18:29N 50°16' W 005°60'610.4
2017-Sep-19 17:53N 50°23' W 005°60'4 9.7
2017-Sep-19 17:31N 50°26' W 005°60'8 9.4
2017-Sep-19 16:41N 50°34' W 005°59'3 9.2
2017-Sep-19 16:22N 50°37' W 005°59'13 9.2
2017-Sep-19 14:56N 50°50' W 005°58'8 9.5
2017-Sep-19 14:03N 50°58' W 005°58'110.0
2017-Sep-19 13:59N 50°59' W 005°58'610.1
2017-Sep-19 13:21N 51°06' W 005°57'5310.0
2017-Sep-19 08:01N 51°59' W 005°53'2 7.8
2017-Sep-19 07:43N 52°01' W 005°52'2 7.6
2017-Sep-19 07:30N 52°03' W 005°52'4 7.9
2017-Sep-19 06:59N 52°07' W 005°51'4 7.9
2017-Sep-19 06:29N 52°11' W 005°50'6 8.3
2017-Sep-19 05:43N 52°17' W 005°49'2 8.8
2017-Sep-19 05:30N 52°19' W 005°48'5 9.3
2017-Sep-19 05:00N 52°23' W 005°47'5 9.9
2017-Sep-19 04:30N 52°28' W 005°47'510.6
2017-Sep-19 04:00N 52°34' W 005°46'611.4
2017-Sep-19 03:30N 52°39' W 005°44'8211.8
2017-Sep-18 20:35N 54°00' W 005°25'110.6
2017-Sep-18 20:30N 54°01' W 005°24'510.8
2017-Sep-18 20:01N 54°06' W 005°23'511.0
2017-Sep-18 19:31N 54°12' W 005°21'611.3
2017-Sep-18 19:00N 54°17' W 005°20'611.7
2017-Sep-18 18:30N 54°23' W 005°20'612.4
2017-Sep-18 18:00N 54°30' W 005°21'612.6
2017-Sep-18 17:30N 54°36' W 005°23'713.1
2017-Sep-18 17:00N 54°42' W 005°28'5 9.4
2017-Sep-18 16:30N 54°42' W 005°36'1 1.0
2017-Sep-18 15:58N 54°42' W 005°37'0 0.0
2017-Sep-18 15:28N 54°42' W 005°37'0 0.0
2017-Sep-18 14:58N 54°42' W 005°37'0 0.0
2017-Sep-18 14:28N 54°42' W 005°37'0 0.0
2017-Sep-18 13:58N 54°42' W 005°37'0 0.1
2017-Sep-18 13:28N 54°42' W 005°37'0 0.1
2017-Sep-18 12:55N 54°42' W 005°37'0 0.1
2017-Sep-18 12:25N 54°42' W 005°37'0 0.1
2017-Sep-18 11:58N 54°42' W 005°37'0 0.0
2017-Sep-18 11:28N 54°42' W 005°37'0 0.0
2017-Sep-18 10:58N 54°42' W 005°37'0 0.0
2017-Sep-18 10:28N 54°42' W 005°37'0 0.2
2017-Sep-18 09:58N 54°42' W 005°37'0 0.1
2017-Sep-18 09:28N 54°42' W 005°37'0 0.0
2017-Sep-18 08:58N 54°42' W 005°37'0 0.0
2017-Sep-18 08:28N 54°42' W 005°37'0 0.0
2017-Sep-18 07:58N 54°42' W 005°37'0 0.0
2017-Sep-18 07:28N 54°42' W 005°37'0 0.0
2017-Sep-18 06:58N 54°42' W 005°37'0 0.0
2017-Sep-18 06:28N 54°42' W 005°37'0 0.0
2017-Sep-18 05:58N 54°42' W 005°37'0 0.0
2017-Sep-18 05:28N 54°42' W 005°37'0 0.0
2017-Sep-18 04:58N 54°42' W 005°37'0 0.0
2017-Sep-18 04:28N 54°42' W 005°37'0 0.0
2017-Sep-18 03:58N 54°42' W 005°37'0 0.0
2017-Sep-18 03:25N 54°42' W 005°37'0 0.0
2017-Sep-18 02:58N 54°42' W 005°37'0 0.0
2017-Sep-18 02:28N 54°42' W 005°37'0 0.1
2017-Sep-18 01:58N 54°42' W 005°37'0 0.1
2017-Sep-18 01:28N 54°42' W 005°37'0 0.0
2017-Sep-18 00:58N 54°42' W 005°37'0 0.1
2017-Sep-18 00:28N 54°42' W 005°37'0 0.0
2017-Sep-17 23:58N 54°42' W 005°37'0 0.0
2017-Sep-17 23:28N 54°42' W 005°37'0 0.0
2017-Sep-17 22:58N 54°42' W 005°37'0 0.1
2017-Sep-17 22:28N 54°42' W 005°37'0 0.0
2017-Sep-17 21:58N 54°42' W 005°37'0 0.0
2017-Sep-17 21:28N 54°42' W 005°37'0 0.0
2017-Sep-17 20:58N 54°42' W 005°37'0 0.0
2017-Sep-17 20:28N 54°42' W 005°37'0 0.0
2017-Sep-17 19:58N 54°42' W 005°37'0 0.0
2017-Sep-17 19:25N 54°42' W 005°37'0 0.0
2017-Sep-17 18:55N 54°42' W 005°37'0 0.0
2017-Sep-17 18:25N 54°42' W 005°37'0 0.0
2017-Sep-17 18:01N 54°42' W 005°37'0 0.0
2017-Sep-17 17:31N 54°42' W 005°37'0 0.0
2017-Sep-17 17:01N 54°42' W 005°37'0 0.0
2017-Sep-17 16:30N 54°42' W 005°37'0 0.0
2017-Sep-17 16:00N 54°42' W 005°37'0 0.0
2017-Sep-17 15:30N 54°42' W 005°37'0 0.0
2017-Sep-17 15:00N 54°42' W 005°37'0 0.0
2017-Sep-17 14:30N 54°42' W 005°37'0 0.0
2017-Sep-17 13:57N 54°42' W 005°37'0 0.0
2017-Sep-17 13:30N 54°42' W 005°37'0 0.0
2017-Sep-17 13:00N 54°42' W 005°37'0 0.0
2017-Sep-17 12:30N 54°42' W 005°37'0 0.0
2017-Sep-17 12:00N 54°42' W 005°37'0 0.1
2017-Sep-17 11:30N 54°42' W 005°37'0 0.0
2017-Sep-17 11:00N 54°42' W 005°37'0 0.0
2017-Sep-17 10:30N 54°42' W 005°37'0 0.0
2017-Sep-17 10:00N 54°42' W 005°37'0 0.0
2017-Sep-17 09:30N 54°42' W 005°37'0 0.0
2017-Sep-17 09:00N 54°42' W 005°37'0 0.0
2017-Sep-17 08:30N 54°42' W 005°37'0 0.0
2017-Sep-17 07:57N 54°42' W 005°37'0 0.0
2017-Sep-17 07:30N 54°42' W 005°37'0 0.0
2017-Sep-17 07:00N 54°42' W 005°37'0 0.0
2017-Sep-17 06:30N 54°42' W 005°37'0 0.0
2017-Sep-17 06:00N 54°42' W 005°37'0 0.0
2017-Sep-17 05:30N 54°42' W 005°37'0 0.0
2017-Sep-17 04:57N 54°42' W 005°37'0 0.0
2017-Sep-17 04:30N 54°42' W 005°37'0 0.0
2017-Sep-17 03:57N 54°42' W 005°37'0 0.0
2017-Sep-17 03:27N 54°42' W 005°37'0 0.0
2017-Sep-17 02:57N 54°42' W 005°37'0 0.0
2017-Sep-17 02:30N 54°42' W 005°37'0 0.0
2017-Sep-17 02:00N 54°42' W 005°37'0 0.0
2017-Sep-17 01:30N 54°42' W 005°37'0 0.0
2017-Sep-17 01:00N 54°42' W 005°37'0 0.0
2017-Sep-17 00:30N 54°42' W 005°37'0 0.0
2017-Sep-17 00:00N 54°42' W 005°37'0 0.0
2017-Sep-16 23:27N 54°42' W 005°37'0 0.0
2017-Sep-16 23:00N 54°42' W 005°37'0 0.0
2017-Sep-16 22:30N 54°42' W 005°37'0 0.0
2017-Sep-16 21:57N 54°42' W 005°37'  

Dump ship's entire track history